createdAt,value
2022-11-10T00:23:24.848Z,98235.44
2022-11-10T00:43:27.830Z,98250.28
2022-11-10T01:03:30.787Z,98250.41
2022-11-10T01:23:33.570Z,98248.97
2022-11-10T01:43:36.191Z,98281.62
2022-11-10T02:03:39.722Z,98297.91
2022-11-10T02:23:42.345Z,98303.72
2022-11-10T02:43:45.021Z,98316.47
2022-11-10T03:03:47.616Z,98324.59
2022-11-10T03:23:50.204Z,98341.69
2022-11-10T03:43:53.013Z,98356.31
2022-11-10T04:03:55.633Z,98358.09
2022-11-10T05:04:31.672Z,98414.09
2022-11-10T05:44:57.702Z,98432.59
2022-11-10T06:05:00.309Z,98469.28
2022-11-10T06:25:02.781Z,98504.03
2022-11-10T06:45:05.213Z,98539.56
2022-11-10T07:05:07.656Z,98567.34
2022-11-10T07:25:10.154Z,98592.47
2022-11-10T07:45:12.614Z,98618.47
2022-11-10T08:05:15.252Z,98624.91
2022-11-10T08:25:17.952Z,98678.56
2022-11-10T08:45:20.415Z,98696.72
2022-11-10T09:05:23.090Z,98721.88
2022-11-10T09:25:25.637Z,98761.09
2022-11-10T09:45:28.369Z,98772.75
2022-11-10T10:05:30.778Z,98783.28
2022-11-10T10:25:33.202Z,98804.81
2022-11-10T10:45:39.290Z,98821.19
2022-11-10T11:05:41.794Z,98841.97
2022-11-10T11:25:44.292Z,98852.50
2022-11-10T11:45:46.753Z,98867.25
2022-11-10T12:05:49.222Z,98880.19
2022-11-10T12:25:51.638Z,98891.34
2022-11-10T12:45:54.029Z,98883.84
2022-11-10T13:05:56.480Z,98905.66
2022-11-10T13:25:59.460Z,98915.16
2022-11-10T13:46:06.012Z,98939.19
2022-11-10T14:26:29.252Z,98971.66
2022-11-10T14:46:31.741Z,98994.63
2022-11-10T15:06:34.253Z,99034.63
2022-11-10T15:26:36.702Z,99045.00
2022-11-10T15:46:39.318Z,99070.28
2022-11-10T16:06:42.151Z,99090.47
2022-11-10T16:26:44.647Z,99121.28
2022-11-10T16:46:47.088Z,99143.00
2022-11-10T17:06:49.625Z,99177.72
2022-11-10T17:26:52.098Z,99230.66
2022-11-10T17:46:54.476Z,99262.41
2022-11-10T18:06:56.928Z,99284.56
2022-11-10T18:26:59.406Z,99303.62
2022-11-10T18:47:01.877Z,99312.19
2022-11-10T19:07:04.581Z,99324.50
2022-11-10T19:27:08.545Z,99332.81
2022-11-10T19:47:11.090Z,99352.87
2022-11-10T20:07:32.763Z,99391.47
2022-11-10T20:27:36.374Z,99406.22
2022-11-10T20:47:38.852Z,99439.13
2022-11-10T21:07:45.461Z,99434.66
